Disclaimer

Please do not use the information listed here in-flight or in-navigation, as they are not provided to us by the airports but are provided by volunteers, so they might be outdated.

Search


Regions


Airport information page

Radio informations:
Tower (TWR) - 119.05 MHz
Ground (GND) - 121.8 MHz
Automatic Terminal Information Service (ATIS) - 125.95 MHz
Approach (APP) - 120.3 MHz

Airport informations:
Latitude: 43° 10' 43.23" N
Longitude: 000° 00' 23.18" W
Elevation: 1260 feet - 384 meters
Operating hours: 24 hour operations
Operating agency: Civil government, landing fees and diplomatic clearance may be required
Timezone: UTC+1(+2DT) - Last Sunday in March to last Sunday in October
Fuel: Jet A1, without icing nhibitor.

100/130 MIL Spec, low lead, aviation gasoline (BLUE)

Runway information:
02/20 - 9843 x 148 feet< - >3000 x 45 meters

Recent METARs:
LFBT 160630Z AUTO 16005KT CAVOK 09/07 Q1020 TEMPO 3000 BR
LFBT 160700Z AUTO 16006KT CAVOK 09/06 Q1020 TEMPO 3000 BR

Airport on the map: